KSFO/SFO METAR and TAF weather

Enter ICAO airport designator
Station Type Date Time Source
KSFO METAR 2021/08/04 19:56 UTC NOAA

KSFO 041956Z 31017KT 10SM FEW006 SCT014 19/12 A3000 RMK AO2 SLP157 T01890122 $


Station Type Date Time Source
KSFO Decoded METAR 2021/08/04 19:56 UTC NOAA

SAN FRANCISCO INTERNATIONAL AIRPORT , CA, United States (KSFO) 37-37N 122-22W 26M
Aug 04, 2021 - 03:56 PM EDT / 2021.08.04 1956 UTC
Wind: from the NW (310 degrees) at 20 MPH (17 KT):0
Visibility: 10 mile(s):0
Sky conditions: partly cloudy
Temperature: 66.0 F (18.9 C)
Dew Point: 54.0 F (12.2 C)
Relative Humidity: 65%
Pressure (altimeter): 30 in. Hg (1015 hPa)
ob: KSFO 041956Z 31017KT 10SM FEW006 SCT014 19/12 A3000 RMK AO2 SLP157 T01890122
cycle: 20

Station Type Date Time Source
KSFO TAF 2021/08/04 19:54 UTC NOAA

TAF
AMD KSFO 041852Z 0419/0524 27014G19KT P6SM SCT014
FM042000 29018G24KT P6SM FEW009 FEW200
FM050300 29016KT P6SM SCT007 BKN011
FM050900 30012KT 6SM -DZ OVC009
FM051600 27013KT P6SM OVC012
FM051900 29020G27KT P6SM FEW012

Example: see airport list